Página principal
METAR-TAF:

METAR-TAF

Aeroportos :

Koror, Babeldaob, Palau

latitude: 07-22N, longitude: 134-32E, altura: 54 m

Observação actual do tempo

O boletim foi feito há 1 hora e 6 minutos, às 15:50 UTC
Vento 16 kt de oes-sudoeste com rajadas de 16 kt
Temperatura 27°C
Humidade 84%
Pressão 1009 hPa
Visibilidade: 22.5 km
Nuvens dispersasa uma altura de 1600 ft, Cumulus congestus.
Nuvens fragmentadasa uma altura de 12000 ft
Nuvens fragmentadasa uma altura de 30000 ft

METAR: PTRO 231550Z 24016G16KT 14SM SCT016TCU BKN120 BKN300 27/24 A2979 RMK TCU ALQDS

Hora: 01:56 (16:56 UTC)

Previsão

O boletim foi feito há 5 horas e 36 minutos, às 11:20 UTC
Previsão válida de 23 às 12 UTC a 24 às 12 UTC
Vento 12 kt de sudoeste
Visibilidade: 10 km
Nuvens dispersasa uma altura de 1600 ft
Nuvens fragmentadasa uma altura de 12000 ft
Encobertoa uma altura de 30000 ft
aguaceiros nas vizinhanças

TAF: PTRO 231120Z 2312/2412 23012KT P6SM VCSH SCT016 BKN120 OVC300

Observações e previsões do tempo de mais de 4000 aeroportos (mensagens METAR e TAF).

As estações disponíveis são os pontos amarelos e vermelhos sobre o mapa.

Mova o rato sobre o mapa para ver o nome da estação.

Depois clique no ponto para visualizar as observações e previsões meteorológicas.

Para alterar o mapa : clique nos botões verdes com uma cruz preta para aumentar o zoom; no botão verde com uma pitada de zoom; ou nas setas verdes para mapas adjacentes.


METAR-TAF: